sensor_id;sensor_type;location;lat;lon;timestamp;P1;durP1;ratioP1;P2;durP2;ratioP2
18796;SDS011;9526;52.612;13.300;2023-10-09T00:01:35;18.08;;;7.50;;
18796;SDS011;9526;52.612;13.300;2023-10-09T00:04:00;12.63;;;6.28;;
18796;SDS011;9526;52.612;13.300;2023-10-09T00:06:26;15.30;;;6.72;;
18796;SDS011;9526;52.612;13.300;2023-10-09T00:08:59;11.98;;;6.25;;
18796;SDS011;9526;52.612;13.300;2023-10-09T00:11:38;13.70;;;5.55;;
18796;SDS011;9526;52.612;13.300;2023-10-09T00:14:06;11.07;;;5.93;;
18796;SDS011;9526;52.612;13.300;2023-10-09T00:16:29;11.77;;;6.15;;
18796;SDS011;9526;52.612;13.300;2023-10-09T00:18:57;11.25;;;5.57;;
18796;SDS011;9526;52.612;13.300;2023-10-09T00:21:36;8.85;;;5.25;;
18796;SDS011;9526;52.612;13.300;2023-10-09T00:24:00;10.60;;;6.35;;
18796;SDS011;9526;52.612;13.300;2023-10-09T00:26:27;9.35;;;5.60;;
18796;SDS011;9526;52.612;13.300;2023-10-09T00:28:53;10.68;;;5.95;;
18796;SDS011;9526;52.612;13.300;2023-10-09T00:31:17;9.18;;;5.50;;
18796;SDS011;9526;52.612;13.300;2023-10-09T00:33:52;8.77;;;4.93;;
18796;SDS011;9526;52.612;13.300;2023-10-09T00:36:18;10.07;;;5.50;;
18796;SDS011;9526;52.612;13.300;2023-10-09T00:38:51;8.38;;;4.90;;
18796;SDS011;9526;52.612;13.300;2023-10-09T00:41:15;15.88;;;5.00;;
18796;SDS011;9526;52.612;13.300;2023-10-09T00:43:43;7.00;;;4.72;;
18796;SDS011;9526;52.612;13.300;2023-10-09T00:46:07;8.57;;;5.10;;
18796;SDS011;9526;52.612;13.300;2023-10-09T00:48:46;10.60;;;5.57;;
18796;SDS011;9526;52.612;13.300;2023-10-09T00:51:11;9.00;;;5.28;;
18796;SDS011;9526;52.612;13.300;2023-10-09T00:53:40;9.77;;;4.90;;
18796;SDS011;9526;52.612;13.300;2023-10-09T00:56:06;9.30;;;5.28;;
18796;SDS011;9526;52.612;13.300;2023-10-09T00:58:40;8.10;;;4.40;;
18796;SDS011;9526;52.612;13.300;2023-10-09T01:01:04;6.07;;;3.70;;
18796;SDS011;9526;52.612;13.300;2023-10-09T01:03:37;5.53;;;3.45;;
18796;SDS011;9526;52.612;13.300;2023-10-09T01:06:02;8.70;;;4.43;;
18796;SDS011;9526;52.612;13.300;2023-10-09T01:08:39;8.82;;;4.13;;
18796;SDS011;9526;52.612;13.300;2023-10-09T01:11:16;8.23;;;4.20;;
18796;SDS011;9526;52.612;13.300;2023-10-09T01:13:43;5.60;;;3.58;;
18796;SDS011;9526;52.612;13.300;2023-10-09T01:16:16;6.68;;;4.03;;
18796;SDS011;9526;52.612;13.300;2023-10-09T01:18:42;7.70;;;3.95;;
18796;SDS011;9526;52.612;13.300;2023-10-09T01:21:11;9.30;;;3.90;;
18796;SDS011;9526;52.612;13.300;2023-10-09T01:23:38;6.75;;;4.05;;
18796;SDS011;9526;52.612;13.300;2023-10-09T01:26:20;5.82;;;3.53;;
18796;SDS011;9526;52.612;13.300;2023-10-09T01:28:45;5.88;;;3.70;;
18796;SDS011;9526;52.612;13.300;2023-10-09T01:31:10;7.40;;;3.60;;
18796;SDS011;9526;52.612;13.300;2023-10-09T01:33:35;6.93;;;3.88;;
18796;SDS011;9526;52.612;13.300;2023-10-09T01:35:59;6.18;;;3.75;;
18796;SDS011;9526;52.612;13.300;2023-10-09T01:38:24;5.93;;;3.85;;
18796;SDS011;9526;52.612;13.300;2023-10-09T01:40:55;5.68;;;3.67;;
18796;SDS011;9526;52.612;13.300;2023-10-09T01:43:29;9.07;;;4.03;;
18796;SDS011;9526;52.612;13.300;2023-10-09T01:45:56;8.63;;;3.60;;
18796;SDS011;9526;52.612;13.300;2023-10-09T01:48:40;6.85;;;3.15;;
18796;SDS011;9526;52.612;13.300;2023-10-09T01:51:12;5.18;;;3.40;;
18796;SDS011;9526;52.612;13.300;2023-10-09T01:53:39;4.53;;;2.95;;
18796;SDS011;9526;52.612;13.300;2023-10-09T01:56:11;5.55;;;3.35;;
18796;SDS011;9526;52.612;13.300;2023-10-09T01:58:38;8.18;;;3.50;;
18796;SDS011;9526;52.612;13.300;2023-10-09T02:01:02;7.43;;;3.60;;
18796;SDS011;9526;52.612;13.300;2023-10-09T02:03:28;6.75;;;3.50;;
18796;SDS011;9526;52.612;13.300;2023-10-09T02:05:53;6.53;;;3.33;;
18796;SDS011;9526;52.612;13.300;2023-10-09T02:08:39;7.47;;;3.53;;
18796;SDS011;9526;52.612;13.300;2023-10-09T02:11:12;5.97;;;3.55;;
18796;SDS011;9526;52.612;13.300;2023-10-09T02:13:37;8.05;;;3.13;;
18796;SDS011;9526;52.612;13.300;2023-10-09T02:16:03;7.70;;;3.45;;
18796;SDS011;9526;52.612;13.300;2023-10-09T02:18:36;6.47;;;3.63;;
18796;SDS011;9526;52.612;13.300;2023-10-09T02:21:14;6.90;;;3.25;;
18796;SDS011;9526;52.612;13.300;2023-10-09T02:23:50;6.10;;;3.50;;
18796;SDS011;9526;52.612;13.300;2023-10-09T02:26:20;5.85;;;3.70;;
18796;SDS011;9526;52.612;13.300;2023-10-09T02:28:48;8.02;;;3.63;;
18796;SDS011;9526;52.612;13.300;2023-10-09T02:31:21;9.10;;;3.83;;
18796;SDS011;9526;52.612;13.300;2023-10-09T02:33:45;5.68;;;3.38;;
18796;SDS011;9526;52.612;13.300;2023-10-09T02:36:09;7.40;;;3.63;;
18796;SDS011;9526;52.612;13.300;2023-10-09T02:38:35;8.30;;;3.40;;
18796;SDS011;9526;52.612;13.300;2023-10-09T02:40:59;6.97;;;3.38;;
18796;SDS011;9526;52.612;13.300;2023-10-09T02:43:41;11.43;;;3.95;;
18796;SDS011;9526;52.612;13.300;2023-10-09T02:46:09;5.72;;;3.42;;
18796;SDS011;9526;52.612;13.300;2023-10-09T02:48:36;5.60;;;3.35;;
18796;SDS011;9526;52.612;13.300;2023-10-09T02:51:04;5.10;;;3.30;;
18796;SDS011;9526;52.612;13.300;2023-10-09T02:53:28;7.03;;;3.70;;
18796;SDS011;9526;52.612;13.300;2023-10-09T02:55:56;6.65;;;3.65;;
18796;SDS011;9526;52.612;13.300;2023-10-09T02:58:34;5.82;;;3.40;;
18796;SDS011;9526;52.612;13.300;2023-10-09T03:00:59;8.50;;;3.65;;
18796;SDS011;9526;52.612;13.300;2023-10-09T03:03:23;6.47;;;3.38;;
18796;SDS011;9526;52.612;13.300;2023-10-09T03:05:48;6.80;;;3.78;;
18796;SDS011;9526;52.612;13.300;2023-10-09T03:08:12;10.57;;;3.60;;
18796;SDS011;9526;52.612;13.300;2023-10-09T03:10:38;21.08;;;3.80;;
18796;SDS011;9526;52.612;13.300;2023-10-09T03:13:01;11.50;;;3.85;;
18796;SDS011;9526;52.612;13.300;2023-10-09T03:15:27;5.93;;;3.67;;
18796;SDS011;9526;52.612;13.300;2023-10-09T03:17:58;6.60;;;3.65;;
18796;SDS011;9526;52.612;13.300;2023-10-09T03:20:22;7.20;;;3.72;;
18796;SDS011;9526;52.612;13.300;2023-10-09T03:22:46;7.05;;;3.17;;
18796;SDS011;9526;52.612;13.300;2023-10-09T03:25:11;7.93;;;3.83;;
18796;SDS011;9526;52.612;13.300;2023-10-09T03:27:35;7.15;;;4.10;;
18796;SDS011;9526;52.612;13.300;2023-10-09T03:29:59;7.47;;;3.28;;
18796;SDS011;9526;52.612;13.300;2023-10-09T03:32:26;9.82;;;3.70;;
18796;SDS011;9526;52.612;13.300;2023-10-09T03:34:51;7.72;;;3.75;;
18796;SDS011;9526;52.612;13.300;2023-10-09T03:37:17;6.22;;;3.63;;
18796;SDS011;9526;52.612;13.300;2023-10-09T03:39:54;5.70;;;3.65;;
18796;SDS011;9526;52.612;13.300;2023-10-09T03:42:18;6.40;;;3.50;;
18796;SDS011;9526;52.612;13.300;2023-10-09T03:44:42;5.90;;;3.58;;
18796;SDS011;9526;52.612;13.300;2023-10-09T03:47:09;7.28;;;3.78;;
18796;SDS011;9526;52.612;13.300;2023-10-09T03:49:33;7.65;;;3.85;;
18796;SDS011;9526;52.612;13.300;2023-10-09T03:52:02;5.85;;;3.78;;
18796;SDS011;9526;52.612;13.300;2023-10-09T03:54:28;6.57;;;3.92;;
18796;SDS011;9526;52.612;13.300;2023-10-09T03:56:52;7.95;;;3.67;;
18796;SDS011;9526;52.612;13.300;2023-10-09T03:59:16;7.60;;;4.15;;
18796;SDS011;9526;52.612;13.300;2023-10-09T04:01:41;8.15;;;4.00;;
18796;SDS011;9526;52.612;13.300;2023-10-09T04:04:05;9.05;;;3.80;;
18796;SDS011;9526;52.612;13.300;2023-10-09T04:06:32;6.28;;;3.58;;
18796;SDS011;9526;52.612;13.300;2023-10-09T04:09:00;7.20;;;4.07;;
18796;SDS011;9526;52.612;13.300;2023-10-09T04:11:36;8.48;;;4.00;;
18796;SDS011;9526;52.612;13.300;2023-10-09T04:14:04;9.07;;;3.90;;
18796;SDS011;9526;52.612;13.300;2023-10-09T04:16:34;7.80;;;4.28;;
18796;SDS011;9526;52.612;13.300;2023-10-09T04:19:12;7.65;;;3.80;;
18796;SDS011;9526;52.612;13.300;2023-10-09T04:21:40;8.00;;;4.55;;
18796;SDS011;9526;52.612;13.300;2023-10-09T04:24:05;7.22;;;3.90;;
18796;SDS011;9526;52.612;13.300;2023-10-09T04:26:45;11.77;;;4.63;;
18796;SDS011;9526;52.612;13.300;2023-10-09T04:29:09;5.68;;;3.70;;
18796;SDS011;9526;52.612;13.300;2023-10-09T04:31:40;7.40;;;4.32;;
18796;SDS011;9526;52.612;13.300;2023-10-09T04:34:03;9.60;;;4.20;;
18796;SDS011;9526;52.612;13.300;2023-10-09T04:36:50;7.20;;;4.55;;
18796;SDS011;9526;52.612;13.300;2023-10-09T04:39:14;6.43;;;4.20;;
18796;SDS011;9526;52.612;13.300;2023-10-09T04:41:57;6.10;;;4.30;;
18796;SDS011;9526;52.612;13.300;2023-10-09T04:44:35;6.72;;;4.13;;
18796;SDS011;9526;52.612;13.300;2023-10-09T04:47:01;10.55;;;4.43;;
18796;SDS011;9526;52.612;13.300;2023-10-09T04:49:47;6.80;;;4.00;;
18796;SDS011;9526;52.612;13.300;2023-10-09T04:52:14;8.65;;;4.70;;
18796;SDS011;9526;52.612;13.300;2023-10-09T04:54:54;8.35;;;3.97;;
18796;SDS011;9526;52.612;13.300;2023-10-09T04:57:38;8.90;;;4.38;;
18796;SDS011;9526;52.612;13.300;2023-10-09T05:00:23;6.00;;;4.22;;
18796;SDS011;9526;52.612;13.300;2023-10-09T05:03:08;10.48;;;4.22;;
18796;SDS011;9526;52.612;13.300;2023-10-09T05:05:34;8.27;;;4.28;;
18796;SDS011;9526;52.612;13.300;2023-10-09T05:08:20;9.88;;;4.80;;
18796;SDS011;9526;52.612;13.300;2023-10-09T05:10:44;9.77;;;5.07;;
18796;SDS011;9526;52.612;13.300;2023-10-09T05:13:39;7.70;;;4.43;;
18796;SDS011;9526;52.612;13.300;2023-10-09T05:16:04;8.65;;;4.82;;
18796;SDS011;9526;52.612;13.300;2023-10-09T05:18:35;7.82;;;4.82;;
18796;SDS011;9526;52.612;13.300;2023-10-09T05:20:58;7.82;;;4.85;;
18796;SDS011;9526;52.612;13.300;2023-10-09T05:23:41;9.38;;;5.07;;
18796;SDS011;9526;52.612;13.300;2023-10-09T05:26:11;9.45;;;4.45;;
18796;SDS011;9526;52.612;13.300;2023-10-09T05:28:58;7.07;;;4.50;;
18796;SDS011;9526;52.612;13.300;2023-10-09T05:31:21;7.60;;;4.55;;
18796;SDS011;9526;52.612;13.300;2023-10-09T05:34:17;7.13;;;4.88;;
18796;SDS011;9526;52.612;13.300;2023-10-09T05:36:43;8.00;;;4.57;;
18796;SDS011;9526;52.612;13.300;2023-10-09T05:39:09;9.75;;;5.57;;
18796;SDS011;9526;52.612;13.300;2023-10-09T05:41:53;11.50;;;4.55;;
18796;SDS011;9526;52.612;13.300;2023-10-09T05:44:21;8.90;;;4.75;;
18796;SDS011;9526;52.612;13.300;2023-10-09T05:47:03;9.65;;;5.40;;
18796;SDS011;9526;52.612;13.300;2023-10-09T05:49:41;7.50;;;4.85;;
18796;SDS011;9526;52.612;13.300;2023-10-09T05:52:23;8.65;;;4.75;;
18796;SDS011;9526;52.612;13.300;2023-10-09T05:55:22;7.97;;;4.93;;
18796;SDS011;9526;52.612;13.300;2023-10-09T05:58:05;10.25;;;5.22;;
18796;SDS011;9526;52.612;13.300;2023-10-09T06:00:46;11.45;;;4.60;;
18796;SDS011;9526;52.612;13.300;2023-10-09T06:03:49;8.80;;;4.57;;
18796;SDS011;9526;52.612;13.300;2023-10-09T06:06:16;9.05;;;5.07;;
18796;SDS011;9526;52.612;13.300;2023-10-09T06:08:54;8.38;;;4.70;;
18796;SDS011;9526;52.612;13.300;2023-10-09T06:11:36;8.95;;;5.22;;
18796;SDS011;9526;52.612;13.300;2023-10-09T06:14:12;9.27;;;5.72;;
18796;SDS011;9526;52.612;13.300;2023-10-09T06:16:36;8.40;;;4.80;;
18796;SDS011;9526;52.612;13.300;2023-10-09T06:19:05;8.57;;;4.90;;
18796;SDS011;9526;52.612;13.300;2023-10-09T06:21:34;8.85;;;4.75;;
18796;SDS011;9526;52.612;13.300;2023-10-09T06:24:23;13.10;;;5.93;;
18796;SDS011;9526;52.612;13.300;2023-10-09T06:26:55;10.35;;;5.40;;
18796;SDS011;9526;52.612;13.300;2023-10-09T06:29:47;12.00;;;6.07;;
18796;SDS011;9526;52.612;13.300;2023-10-09T06:32:34;9.77;;;5.53;;
18796;SDS011;9526;52.612;13.300;2023-10-09T06:34:59;8.90;;;5.30;;
18796;SDS011;9526;52.612;13.300;2023-10-09T06:37:40;8.75;;;5.85;;
18796;SDS011;9526;52.612;13.300;2023-10-09T06:40:23;11.07;;;5.82;;
18796;SDS011;9526;52.612;13.300;2023-10-09T06:43:04;8.80;;;6.10;;
18796;SDS011;9526;52.612;13.300;2023-10-09T06:45:34;9.50;;;5.35;;
18796;SDS011;9526;52.612;13.300;2023-10-09T06:48:06;9.82;;;6.30;;
18796;SDS011;9526;52.612;13.300;2023-10-09T06:50:49;8.93;;;5.45;;
18796;SDS011;9526;52.612;13.300;2023-10-09T06:53:19;10.02;;;5.40;;
18796;SDS011;9526;52.612;13.300;2023-10-09T06:55:48;8.25;;;5.13;;
18796;SDS011;9526;52.612;13.300;2023-10-09T06:58:12;11.93;;;4.80;;
18796;SDS011;9526;52.612;13.300;2023-10-09T07:00:39;10.43;;;5.65;;
18796;SDS011;9526;52.612;13.300;2023-10-09T07:03:37;9.77;;;5.20;;
18796;SDS011;9526;52.612;13.300;2023-10-09T07:06:14;9.27;;;5.13;;
18796;SDS011;9526;52.612;13.300;2023-10-09T07:08:47;9.10;;;4.85;;
18796;SDS011;9526;52.612;13.300;2023-10-09T07:11:21;8.48;;;4.45;;
18796;SDS011;9526;52.612;13.300;2023-10-09T07:14:05;10.57;;;4.47;;
18796;SDS011;9526;52.612;13.300;2023-10-09T07:16:31;8.80;;;4.75;;
18796;SDS011;9526;52.612;13.300;2023-10-09T07:19:00;8.50;;;4.63;;
18796;SDS011;9526;52.612;13.300;2023-10-09T07:21:31;8.25;;;4.18;;
18796;SDS011;9526;52.612;13.300;2023-10-09T07:23:57;8.23;;;4.40;;
18796;SDS011;9526;52.612;13.300;2023-10-09T07:26:36;7.60;;;4.22;;
18796;SDS011;9526;52.612;13.300;2023-10-09T07:29:08;10.63;;;4.30;;
18796;SDS011;9526;52.612;13.300;2023-10-09T07:31:41;11.43;;;5.00;;
18796;SDS011;9526;52.612;13.300;2023-10-09T07:34:09;7.65;;;4.60;;
18796;SDS011;9526;52.612;13.300;2023-10-09T07:36:47;7.22;;;4.70;;
18796;SDS011;9526;52.612;13.300;2023-10-09T07:39:18;12.93;;;4.50;;
18796;SDS011;9526;52.612;13.300;2023-10-09T07:41:44;8.77;;;4.57;;
18796;SDS011;9526;52.612;13.300;2023-10-09T07:44:18;8.13;;;4.20;;
18796;SDS011;9526;52.612;13.300;2023-10-09T07:46:42;8.15;;;4.43;;
18796;SDS011;9526;52.612;13.300;2023-10-09T07:49:34;6.95;;;4.05;;
18796;SDS011;9526;52.612;13.300;2023-10-09T07:51:59;8.75;;;3.95;;
18796;SDS011;9526;52.612;13.300;2023-10-09T07:54:22;7.75;;;4.20;;
18796;SDS011;9526;52.612;13.300;2023-10-09T07:56:54;7.47;;;4.18;;
18796;SDS011;9526;52.612;13.300;2023-10-09T07:59:30;8.55;;;4.63;;
18796;SDS011;9526;52.612;13.300;2023-10-09T08:01:55;8.02;;;4.55;;
18796;SDS011;9526;52.612;13.300;2023-10-09T08:04:24;11.00;;;5.38;;
18796;SDS011;9526;52.612;13.300;2023-10-09T08:07:01;7.57;;;4.47;;
18796;SDS011;9526;52.612;13.300;2023-10-09T08:09:48;8.18;;;4.70;;
18796;SDS011;9526;52.612;13.300;2023-10-09T08:12:34;7.13;;;4.65;;
18796;SDS011;9526;52.612;13.300;2023-10-09T08:15:17;12.27;;;5.28;;
18796;SDS011;9526;52.612;13.300;2023-10-09T08:17:45;8.75;;;4.93;;
18796;SDS011;9526;52.612;13.300;2023-10-09T08:20:12;10.35;;;5.00;;
18796;SDS011;9526;52.612;13.300;2023-10-09T08:22:39;8.93;;;5.20;;
18796;SDS011;9526;52.612;13.300;2023-10-09T08:25:05;7.07;;;4.88;;
18796;SDS011;9526;52.612;13.300;2023-10-09T08:27:30;9.52;;;4.53;;
18796;SDS011;9526;52.612;13.300;2023-10-09T08:30:16;7.45;;;5.03;;
18796;SDS011;9526;52.612;13.300;2023-10-09T08:32:52;8.93;;;4.65;;
18796;SDS011;9526;52.612;13.300;2023-10-09T08:35:26;10.00;;;5.07;;
18796;SDS011;9526;52.612;13.300;2023-10-09T08:37:51;11.32;;;5.00;;
18796;SDS011;9526;52.612;13.300;2023-10-09T08:40:15;8.85;;;5.63;;
18796;SDS011;9526;52.612;13.300;2023-10-09T08:42:41;7.97;;;5.03;;
18796;SDS011;9526;52.612;13.300;2023-10-09T08:45:11;9.20;;;4.57;;
18796;SDS011;9526;52.612;13.300;2023-10-09T08:47:37;9.80;;;5.53;;
18796;SDS011;9526;52.612;13.300;2023-10-09T08:50:03;10.35;;;5.30;;
18796;SDS011;9526;52.612;13.300;2023-10-09T08:52:34;8.10;;;4.65;;
18796;SDS011;9526;52.612;13.300;2023-10-09T08:54:59;9.85;;;4.90;;
18796;SDS011;9526;52.612;13.300;2023-10-09T08:57:23;7.40;;;4.85;;
18796;SDS011;9526;52.612;13.300;2023-10-09T08:59:48;8.10;;;4.32;;
18796;SDS011;9526;52.612;13.300;2023-10-09T09:02:12;10.38;;;5.07;;
18796;SDS011;9526;52.612;13.300;2023-10-09T09:04:37;9.20;;;5.03;;
18796;SDS011;9526;52.612;13.300;2023-10-09T09:07:03;9.40;;;4.88;;
18796;SDS011;9526;52.612;13.300;2023-10-09T09:09:28;10.93;;;5.28;;
18796;SDS011;9526;52.612;13.300;2023-10-09T09:11:54;14.23;;;6.30;;
18796;SDS011;9526;52.612;13.300;2023-10-09T09:14:18;12.88;;;6.05;;
18796;SDS011;9526;52.612;13.300;2023-10-09T09:16:44;9.60;;;6.05;;
18796;SDS011;9526;52.612;13.300;2023-10-09T09:19:10;9.38;;;6.25;;
18796;SDS011;9526;52.612;13.300;2023-10-09T09:21:41;10.90;;;6.60;;
18796;SDS011;9526;52.612;13.300;2023-10-09T09:24:12;10.82;;;6.97;;
18796;SDS011;9526;52.612;13.300;2023-10-09T09:26:49;10.98;;;6.82;;
18796;SDS011;9526;52.612;13.300;2023-10-09T09:29:20;12.45;;;6.65;;
18796;SDS011;9526;52.612;13.300;2023-10-09T09:31:54;11.63;;;7.28;;
18796;SDS011;9526;52.612;13.300;2023-10-09T09:34:28;13.48;;;7.25;;
18796;SDS011;9526;52.612;13.300;2023-10-09T09:36:54;12.10;;;7.13;;
18796;SDS011;9526;52.612;13.300;2023-10-09T09:39:22;13.52;;;7.47;;
18796;SDS011;9526;52.612;13.300;2023-10-09T09:42:06;9.38;;;6.63;;
18796;SDS011;9526;52.612;13.300;2023-10-09T09:44:35;11.70;;;6.72;;
18796;SDS011;9526;52.612;13.300;2023-10-09T09:47:06;10.70;;;6.75;;
18796;SDS011;9526;52.612;13.300;2023-10-09T09:49:30;12.27;;;7.10;;
18796;SDS011;9526;52.612;13.300;2023-10-09T09:51:55;13.98;;;8.13;;
18796;SDS011;9526;52.612;13.300;2023-10-09T09:54:19;13.48;;;8.18;;
18796;SDS011;9526;52.612;13.300;2023-10-09T09:56:49;13.73;;;8.75;;
18796;SDS011;9526;52.612;13.300;2023-10-09T09:59:17;12.07;;;7.95;;
18796;SDS011;9526;52.612;13.300;2023-10-09T10:01:45;12.60;;;7.75;;
18796;SDS011;9526;52.612;13.300;2023-10-09T10:04:19;11.70;;;8.07;;
18796;SDS011;9526;52.612;13.300;2023-10-09T10:06:44;10.52;;;6.93;;
18796;SDS011;9526;52.612;13.300;2023-10-09T10:09:09;14.40;;;7.53;;
18796;SDS011;9526;52.612;13.300;2023-10-09T10:11:41;12.63;;;7.55;;
18796;SDS011;9526;52.612;13.300;2023-10-09T10:14:08;11.07;;;6.55;;
18796;SDS011;9526;52.612;13.300;2023-10-09T10:16:33;12.65;;;7.75;;
18796;SDS011;9526;52.612;13.300;2023-10-09T10:19:26;13.98;;;7.72;;
18796;SDS011;9526;52.612;13.300;2023-10-09T10:22:47;17.90;;;7.75;;
18796;SDS011;9526;52.612;13.300;2023-10-09T10:25:26;12.50;;;7.70;;
18796;SDS011;9526;52.612;13.300;2023-10-09T10:30:52;12.27;;;7.38;;
18796;SDS011;9526;52.612;13.300;2023-10-09T10:33:18;15.20;;;7.68;;
18796;SDS011;9526;52.612;13.300;2023-10-09T10:35:44;11.90;;;7.78;;
18796;SDS011;9526;52.612;13.300;2023-10-09T10:38:21;13.88;;;7.20;;
18796;SDS011;9526;52.612;13.300;2023-10-09T10:40:47;11.85;;;6.95;;
18796;SDS011;9526;52.612;13.300;2023-10-09T10:43:19;10.30;;;6.45;;
18796;SDS011;9526;52.612;13.300;2023-10-09T10:46:01;9.98;;;6.00;;
18796;SDS011;9526;52.612;13.300;2023-10-09T10:48:35;8.85;;;5.28;;
18796;SDS011;9526;52.612;13.300;2023-10-09T10:51:00;6.28;;;4.57;;
18796;SDS011;9526;52.612;13.300;2023-10-09T10:53:25;9.63;;;5.47;;
18796;SDS011;9526;52.612;13.300;2023-10-09T10:55:57;11.18;;;5.20;;
18796;SDS011;9526;52.612;13.300;2023-10-09T10:58:39;8.68;;;4.43;;
18796;SDS011;9526;52.612;13.300;2023-10-09T11:01:11;9.00;;;4.50;;
18796;SDS011;9526;52.612;13.300;2023-10-09T11:03:36;7.90;;;4.75;;
18796;SDS011;9526;52.612;13.300;2023-10-09T11:06:24;5.47;;;4.05;;
18796;SDS011;9526;52.612;13.300;2023-10-09T11:08:59;9.93;;;4.38;;
18796;SDS011;9526;52.612;13.300;2023-10-09T11:11:31;7.63;;;4.60;;
18796;SDS011;9526;52.612;13.300;2023-10-09T11:14:09;32.17;;;6.32;;
18796;SDS011;9526;52.612;13.300;2023-10-09T11:16:39;16.02;;;5.55;;
18796;SDS011;9526;52.612;13.300;2023-10-09T11:19:11;7.93;;;4.30;;
18796;SDS011;9526;52.612;13.300;2023-10-09T11:21:45;8.55;;;4.43;;
18796;SDS011;9526;52.612;13.300;2023-10-09T11:24:15;8.63;;;4.78;;
18796;SDS011;9526;52.612;13.300;2023-10-09T11:26:53;9.05;;;4.40;;
18796;SDS011;9526;52.612;13.300;2023-10-09T11:29:18;6.25;;;4.38;;
18796;SDS011;9526;52.612;13.300;2023-10-09T11:31:58;6.63;;;4.18;;
18796;SDS011;9526;52.612;13.300;2023-10-09T11:34:26;8.85;;;4.10;;
18796;SDS011;9526;52.612;13.300;2023-10-09T11:36:51;10.35;;;5.45;;
18796;SDS011;9526;52.612;13.300;2023-10-09T11:39:23;9.13;;;5.10;;
18796;SDS011;9526;52.612;13.300;2023-10-09T11:44:57;8.45;;;4.72;;
18796;SDS011;9526;52.612;13.300;2023-10-09T11:47:35;17.08;;;4.75;;
18796;SDS011;9526;52.612;13.300;2023-10-09T11:50:08;7.57;;;4.82;;
18796;SDS011;9526;52.612;13.300;2023-10-09T11:52:35;10.43;;;5.57;;
18796;SDS011;9526;52.612;13.300;2023-10-09T11:55:31;8.07;;;4.63;;
18796;SDS011;9526;52.612;13.300;2023-10-09T11:57:56;9.18;;;5.38;;
18796;SDS011;9526;52.612;13.300;2023-10-09T12:00:21;8.93;;;5.53;;
18796;SDS011;9526;52.612;13.300;2023-10-09T12:02:53;8.02;;;4.85;;
18796;SDS011;9526;52.612;13.300;2023-10-09T12:05:18;9.98;;;5.25;;
18796;SDS011;9526;52.612;13.300;2023-10-09T12:07:45;10.02;;;4.93;;
18796;SDS011;9526;52.612;13.300;2023-10-09T12:10:13;8.43;;;5.10;;
18796;SDS011;9526;52.612;13.300;2023-10-09T12:12:46;7.90;;;4.70;;
18796;SDS011;9526;52.612;13.300;2023-10-09T12:15:11;6.68;;;4.35;;
18796;SDS011;9526;52.612;13.300;2023-10-09T12:17:39;8.10;;;4.80;;
18796;SDS011;9526;52.612;13.300;2023-10-09T12:20:08;8.93;;;5.47;;
18796;SDS011;9526;52.612;13.300;2023-10-09T12:22:52;6.60;;;4.60;;
18796;SDS011;9526;52.612;13.300;2023-10-09T12:25:19;8.68;;;4.93;;
18796;SDS011;9526;52.612;13.300;2023-10-09T12:27:45;8.60;;;4.78;;
18796;SDS011;9526;52.612;13.300;2023-10-09T12:30:10;7.93;;;4.45;;
18796;SDS011;9526;52.612;13.300;2023-10-09T12:32:36;7.65;;;4.82;;
18796;SDS011;9526;52.612;13.300;2023-10-09T12:35:02;9.43;;;4.70;;
18796;SDS011;9526;52.612;13.300;2023-10-09T12:37:40;8.82;;;5.00;;
18796;SDS011;9526;52.612;13.300;2023-10-09T12:40:06;8.25;;;5.57;;
18796;SDS011;9526;52.612;13.300;2023-10-09T12:42:32;7.97;;;5.03;;
18796;SDS011;9526;52.612;13.300;2023-10-09T12:44:58;7.88;;;5.15;;
18796;SDS011;9526;52.612;13.300;2023-10-09T12:47:30;9.38;;;5.13;;
18796;SDS011;9526;52.612;13.300;2023-10-09T12:49:55;10.05;;;5.38;;
18796;SDS011;9526;52.612;13.300;2023-10-09T12:52:20;10.60;;;6.18;;
18796;SDS011;9526;52.612;13.300;2023-10-09T12:54:56;11.18;;;6.38;;
18796;SDS011;9526;52.612;13.300;2023-10-09T12:57:20;10.35;;;5.95;;
18796;SDS011;9526;52.612;13.300;2023-10-09T12:59:45;12.18;;;5.75;;
18796;SDS011;9526;52.612;13.300;2023-10-09T13:02:11;9.85;;;6.32;;
18796;SDS011;9526;52.612;13.300;2023-10-09T13:04:50;10.50;;;6.03;;
18796;SDS011;9526;52.612;13.300;2023-10-09T13:07:15;9.88;;;5.85;;
18796;SDS011;9526;52.612;13.300;2023-10-09T13:09:44;10.75;;;6.45;;
18796;SDS011;9526;52.612;13.300;2023-10-09T13:12:29;10.50;;;6.50;;
18796;SDS011;9526;52.612;13.300;2023-10-09T13:14:54;12.52;;;7.45;;
18796;SDS011;9526;52.612;13.300;2023-10-09T13:17:19;10.90;;;6.43;;
18796;SDS011;9526;52.612;13.300;2023-10-09T13:19:44;9.13;;;6.57;;
18796;SDS011;9526;52.612;13.300;2023-10-09T13:22:08;10.02;;;6.05;;
18796;SDS011;9526;52.612;13.300;2023-10-09T13:24:35;9.32;;;6.45;;
18796;SDS011;9526;52.612;13.300;2023-10-09T13:27:01;13.57;;;7.25;;
18796;SDS011;9526;52.612;13.300;2023-10-09T13:29:28;10.48;;;6.38;;
18796;SDS011;9526;52.612;13.300;2023-10-09T13:31:55;11.40;;;6.65;;
18796;SDS011;9526;52.612;13.300;2023-10-09T13:34:24;10.15;;;6.18;;
18796;SDS011;9526;52.612;13.300;2023-10-09T13:36:50;13.18;;;6.32;;
18796;SDS011;9526;52.612;13.300;2023-10-09T13:39:15;12.60;;;6.18;;
18796;SDS011;9526;52.612;13.300;2023-10-09T13:41:48;14.05;;;7.20;;
18796;SDS011;9526;52.612;13.300;2023-10-09T13:44:20;10.48;;;6.35;;
18796;SDS011;9526;52.612;13.300;2023-10-09T13:46:45;11.95;;;6.88;;
18796;SDS011;9526;52.612;13.300;2023-10-09T13:49:12;12.05;;;6.68;;
18796;SDS011;9526;52.612;13.300;2023-10-09T13:51:36;11.07;;;6.80;;
18796;SDS011;9526;52.612;13.300;2023-10-09T13:54:05;13.15;;;7.75;;
18796;SDS011;9526;52.612;13.300;2023-10-09T13:56:28;11.32;;;6.88;;
18796;SDS011;9526;52.612;13.300;2023-10-09T13:58:52;11.80;;;7.25;;
18796;SDS011;9526;52.612;13.300;2023-10-09T14:01:17;10.43;;;6.70;;
18796;SDS011;9526;52.612;13.300;2023-10-09T14:03:50;12.43;;;7.20;;
18796;SDS011;9526;52.612;13.300;2023-10-09T14:06:17;14.55;;;7.47;;
18796;SDS011;9526;52.612;13.300;2023-10-09T14:08:51;11.48;;;7.50;;
18796;SDS011;9526;52.612;13.300;2023-10-09T14:11:17;11.52;;;7.00;;
18796;SDS011;9526;52.612;13.300;2023-10-09T14:13:40;12.20;;;7.72;;
18796;SDS011;9526;52.612;13.300;2023-10-09T14:16:04;12.63;;;8.00;;
18796;SDS011;9526;52.612;13.300;2023-10-09T14:18:31;11.25;;;7.45;;
18796;SDS011;9526;52.612;13.300;2023-10-09T14:20:56;14.20;;;8.25;;
18796;SDS011;9526;52.612;13.300;2023-10-09T14:23:26;15.57;;;8.75;;
18796;SDS011;9526;52.612;13.300;2023-10-09T14:25:53;13.77;;;8.20;;
18796;SDS011;9526;52.612;13.300;2023-10-09T14:28:23;11.70;;;7.85;;
18796;SDS011;9526;52.612;13.300;2023-10-09T14:30:52;15.45;;;8.70;;
18796;SDS011;9526;52.612;13.300;2023-10-09T14:33:21;13.88;;;8.85;;
18796;SDS011;9526;52.612;13.300;2023-10-09T14:35:45;14.30;;;8.73;;
18796;SDS011;9526;52.612;13.300;2023-10-09T14:38:11;13.60;;;8.77;;
18796;SDS011;9526;52.612;13.300;2023-10-09T14:40:35;11.93;;;8.32;;
18796;SDS011;9526;52.612;13.300;2023-10-09T14:43:03;11.98;;;8.18;;
18796;SDS011;9526;52.612;13.300;2023-10-09T14:45:29;15.45;;;8.68;;
18796;SDS011;9526;52.612;13.300;2023-10-09T14:47:53;13.75;;;8.60;;
18796;SDS011;9526;52.612;13.300;2023-10-09T14:50:17;12.98;;;8.57;;
18796;SDS011;9526;52.612;13.300;2023-10-09T14:52:43;12.25;;;8.75;;
18796;SDS011;9526;52.612;13.300;2023-10-09T14:55:09;13.27;;;9.02;;
18796;SDS011;9526;52.612;13.300;2023-10-09T14:57:33;14.55;;;9.38;;
18796;SDS011;9526;52.612;13.300;2023-10-09T14:59:57;13.88;;;8.82;;
18796;SDS011;9526;52.612;13.300;2023-10-09T15:02:21;14.70;;;8.82;;
18796;SDS011;9526;52.612;13.300;2023-10-09T15:04:45;12.40;;;8.35;;
18796;SDS011;9526;52.612;13.300;2023-10-09T15:07:09;14.85;;;9.00;;
18796;SDS011;9526;52.612;13.300;2023-10-09T15:09:47;13.57;;;9.02;;